sensor_id;sensor_type;location;lat;lon;timestamp;temperature;humidity
7684;DHT22;3884;48.616;12.872;2023-04-24T00:00:52;11.30;99.90
7684;DHT22;3884;48.616;12.872;2023-04-24T00:03:23;11.30;99.90
7684;DHT22;3884;48.616;12.872;2023-04-24T00:05:54;11.30;99.90
7684;DHT22;3884;48.616;12.872;2023-04-24T00:08:23;11.30;99.90
7684;DHT22;3884;48.616;12.872;2023-04-24T00:10:50;11.30;99.90
7684;DHT22;3884;48.616;12.872;2023-04-24T00:13:18;11.30;99.90
7684;DHT22;3884;48.616;12.872;2023-04-24T00:15:45;11.20;99.90
7684;DHT22;3884;48.616;12.872;2023-04-24T00:18:13;11.20;99.90
7684;DHT22;3884;48.616;12.872;2023-04-24T00:20:41;11.20;99.90
7684;DHT22;3884;48.616;12.872;2023-04-24T00:23:09;11.00;99.90
7684;DHT22;3884;48.616;12.872;2023-04-24T00:25:38;11.20;99.90
7684;DHT22;3884;48.616;12.872;2023-04-24T00:28:05;11.20;99.90
7684;DHT22;3884;48.616;12.872;2023-04-24T00:30:33;11.20;99.90
7684;DHT22;3884;48.616;12.872;2023-04-24T00:33:04;11.20;99.90
7684;DHT22;3884;48.616;12.872;2023-04-24T00:35:31;11.10;99.90
7684;DHT22;3884;48.616;12.872;2023-04-24T00:37:58;11.10;99.90
7684;DHT22;3884;48.616;12.872;2023-04-24T00:40:27;11.10;99.90
7684;DHT22;3884;48.616;12.872;2023-04-24T00:42:55;11.10;99.90
7684;DHT22;3884;48.616;12.872;2023-04-24T00:45:23;11.20;99.90
7684;DHT22;3884;48.616;12.872;2023-04-24T00:47:53;11.20;99.90
7684;DHT22;3884;48.616;12.872;2023-04-24T00:50:21;11.20;99.90
7684;DHT22;3884;48.616;12.872;2023-04-24T00:52:48;11.20;99.90
7684;DHT22;3884;48.616;12.872;2023-04-24T00:55:15;11.20;99.90
7684;DHT22;3884;48.616;12.872;2023-04-24T00:57:43;11.30;99.90
7684;DHT22;3884;48.616;12.872;2023-04-24T01:00:15;11.30;99.90
7684;DHT22;3884;48.616;12.872;2023-04-24T01:02:43;11.30;99.90
7684;DHT22;3884;48.616;12.872;2023-04-24T01:05:11;11.30;99.90
7684;DHT22;3884;48.616;12.872;2023-04-24T01:07:39;11.30;99.90
7684;DHT22;3884;48.616;12.872;2023-04-24T01:10:10;11.20;99.90
7684;DHT22;3884;48.616;12.872;2023-04-24T01:12:40;11.20;99.90
7684;DHT22;3884;48.616;12.872;2023-04-24T01:15:08;11.20;99.90
7684;DHT22;3884;48.616;12.872;2023-04-24T01:17:39;11.30;99.90
7684;DHT22;3884;48.616;12.872;2023-04-24T01:20:09;11.20;99.90
7684;DHT22;3884;48.616;12.872;2023-04-24T01:22:41;11.30;99.90
7684;DHT22;3884;48.616;12.872;2023-04-24T01:25:12;11.20;99.90
7684;DHT22;3884;48.616;12.872;2023-04-24T01:27:40;11.20;99.90
7684;DHT22;3884;48.616;12.872;2023-04-24T01:30:11;11.20;99.90
7684;DHT22;3884;48.616;12.872;2023-04-24T01:32:39;11.20;99.90
7684;DHT22;3884;48.616;12.872;2023-04-24T01:35:07;11.20;99.90
7684;DHT22;3884;48.616;12.872;2023-04-24T01:37:34;11.20;99.90
7684;DHT22;3884;48.616;12.872;2023-04-24T01:40:05;11.20;99.90
7684;DHT22;3884;48.616;12.872;2023-04-24T01:42:32;11.10;99.90
7684;DHT22;3884;48.616;12.872;2023-04-24T01:45:07;11.20;99.90
7684;DHT22;3884;48.616;12.872;2023-04-24T01:47:38;11.20;99.90
7684;DHT22;3884;48.616;12.872;2023-04-24T01:50:06;11.20;99.90
7684;DHT22;3884;48.616;12.872;2023-04-24T01:52:34;11.20;99.90
7684;DHT22;3884;48.616;12.872;2023-04-24T01:55:05;11.20;99.90
7684;DHT22;3884;48.616;12.872;2023-04-24T01:57:34;11.10;99.90
7684;DHT22;3884;48.616;12.872;2023-04-24T02:00:02;11.10;99.90
7684;DHT22;3884;48.616;12.872;2023-04-24T02:02:41;11.10;99.90
7684;DHT22;3884;48.616;12.872;2023-04-24T02:05:08;11.10;99.90
7684;DHT22;3884;48.616;12.872;2023-04-24T02:07:37;11.00;99.90
7684;DHT22;3884;48.616;12.872;2023-04-24T02:10:06;11.00;99.90
7684;DHT22;3884;48.616;12.872;2023-04-24T02:12:33;11.00;99.90
7684;DHT22;3884;48.616;12.872;2023-04-24T02:15:00;11.00;99.90
7684;DHT22;3884;48.616;12.872;2023-04-24T02:17:28;11.00;99.90
7684;DHT22;3884;48.616;12.872;2023-04-24T02:19:56;11.00;99.90
7684;DHT22;3884;48.616;12.872;2023-04-24T02:22:23;11.10;99.90
7684;DHT22;3884;48.616;12.872;2023-04-24T02:24:53;11.00;99.90
7684;DHT22;3884;48.616;12.872;2023-04-24T02:27:24;10.90;99.90
7684;DHT22;3884;48.616;12.872;2023-04-24T02:29:51;10.80;99.90
7684;DHT22;3884;48.616;12.872;2023-04-24T02:32:18;10.90;99.90
7684;DHT22;3884;48.616;12.872;2023-04-24T02:34:48;10.90;99.90
7684;DHT22;3884;48.616;12.872;2023-04-24T02:37:16;10.90;99.90
7684;DHT22;3884;48.616;12.872;2023-04-24T02:39:44;10.90;99.90
7684;DHT22;3884;48.616;12.872;2023-04-24T02:42:11;10.80;99.90
7684;DHT22;3884;48.616;12.872;2023-04-24T02:44:42;10.90;99.90
7684;DHT22;3884;48.616;12.872;2023-04-24T02:47:10;10.80;99.90
7684;DHT22;3884;48.616;12.872;2023-04-24T02:49:37;10.80;99.90
7684;DHT22;3884;48.616;12.872;2023-04-24T02:52:04;10.80;99.90
7684;DHT22;3884;48.616;12.872;2023-04-24T02:54:34;10.80;99.90
7684;DHT22;3884;48.616;12.872;2023-04-24T02:57:02;10.90;99.90
7684;DHT22;3884;48.616;12.872;2023-04-24T02:59:33;10.90;99.90
7684;DHT22;3884;48.616;12.872;2023-04-24T03:02:04;10.80;99.90
7684;DHT22;3884;48.616;12.872;2023-04-24T03:04:32;10.80;99.90
7684;DHT22;3884;48.616;12.872;2023-04-24T03:07:00;10.80;99.90
7684;DHT22;3884;48.616;12.872;2023-04-24T03:09:27;10.80;99.90
7684;DHT22;3884;48.616;12.872;2023-04-24T03:11:54;10.80;99.90
7684;DHT22;3884;48.616;12.872;2023-04-24T03:14:24;10.80;99.90
7684;DHT22;3884;48.616;12.872;2023-04-24T03:16:55;10.80;99.90
7684;DHT22;3884;48.616;12.872;2023-04-24T03:19:23;10.80;99.90
7684;DHT22;3884;48.616;12.872;2023-04-24T03:21:58;10.70;99.90
7684;DHT22;3884;48.616;12.872;2023-04-24T03:24:26;10.70;99.90
7684;DHT22;3884;48.616;12.872;2023-04-24T03:26:55;10.90;99.90
7684;DHT22;3884;48.616;12.872;2023-04-24T03:29:41;10.70;99.90
7684;DHT22;3884;48.616;12.872;2023-04-24T03:32:08;10.70;99.90
7684;DHT22;3884;48.616;12.872;2023-04-24T03:34:39;10.70;99.90
7684;DHT22;3884;48.616;12.872;2023-04-24T03:37:08;10.80;99.90
7684;DHT22;3884;48.616;12.872;2023-04-24T03:39:43;10.70;99.90
7684;DHT22;3884;48.616;12.872;2023-04-24T03:42:13;10.70;99.90
7684;DHT22;3884;48.616;12.872;2023-04-24T03:44:52;10.70;99.90
7684;DHT22;3884;48.616;12.872;2023-04-24T03:47:26;10.60;99.90
7684;DHT22;3884;48.616;12.872;2023-04-24T03:49:59;10.70;99.90
7684;DHT22;3884;48.616;12.872;2023-04-24T03:52:31;10.60;99.90
7684;DHT22;3884;48.616;12.872;2023-04-24T03:55:01;10.70;99.90
7684;DHT22;3884;48.616;12.872;2023-04-24T03:57:33;10.60;99.90
7684;DHT22;3884;48.616;12.872;2023-04-24T04:00:12;10.60;99.90
7684;DHT22;3884;48.616;12.872;2023-04-24T04:02:49;10.60;99.90
7684;DHT22;3884;48.616;12.872;2023-04-24T04:05:19;10.50;99.90
7684;DHT22;3884;48.616;12.872;2023-04-24T04:07:46;10.50;99.90
7684;DHT22;3884;48.616;12.872;2023-04-24T04:10:13;10.50;99.90
7684;DHT22;3884;48.616;12.872;2023-04-24T04:12:39;10.50;99.90
7684;DHT22;3884;48.616;12.872;2023-04-24T04:15:08;10.50;99.90
7684;DHT22;3884;48.616;12.872;2023-04-24T04:17:35;10.40;99.90
7684;DHT22;3884;48.616;12.872;2023-04-24T04:20:06;10.40;99.90
7684;DHT22;3884;48.616;12.872;2023-04-24T04:22:38;10.50;99.90
7684;DHT22;3884;48.616;12.872;2023-04-24T04:25:08;10.40;99.90
7684;DHT22;3884;48.616;12.872;2023-04-24T04:27:35;10.40;99.90
7684;DHT22;3884;48.616;12.872;2023-04-24T04:30:09;10.40;99.90
7684;DHT22;3884;48.616;12.872;2023-04-24T04:32:50;10.40;99.90
7684;DHT22;3884;48.616;12.872;2023-04-24T04:35:17;10.40;99.90
7684;DHT22;3884;48.616;12.872;2023-04-24T04:37:46;10.40;99.90
7684;DHT22;3884;48.616;12.872;2023-04-24T04:40:29;10.40;99.90
7684;DHT22;3884;48.616;12.872;2023-04-24T04:43:01;10.40;99.90
7684;DHT22;3884;48.616;12.872;2023-04-24T04:45:32;10.40;99.90
7684;DHT22;3884;48.616;12.872;2023-04-24T04:48:20;10.40;99.90
7684;DHT22;3884;48.616;12.872;2023-04-24T04:50:47;10.30;99.90
7684;DHT22;3884;48.616;12.872;2023-04-24T04:53:15;10.40;99.90
7684;DHT22;3884;48.616;12.872;2023-04-24T04:55:42;10.30;99.90
7684;DHT22;3884;48.616;12.872;2023-04-24T04:58:17;10.30;99.90
7684;DHT22;3884;48.616;12.872;2023-04-24T05:00:45;10.30;99.90
7684;DHT22;3884;48.616;12.872;2023-04-24T05:03:21;10.30;99.90
7684;DHT22;3884;48.616;12.872;2023-04-24T05:05:59;10.40;99.90
7684;DHT22;3884;48.616;12.872;2023-04-24T05:08:29;10.40;99.90
7684;DHT22;3884;48.616;12.872;2023-04-24T05:10:55;10.40;99.90
7684;DHT22;3884;48.616;12.872;2023-04-24T05:13:24;10.40;99.90
7684;DHT22;3884;48.616;12.872;2023-04-24T05:15:51;10.40;99.90
7684;DHT22;3884;48.616;12.872;2023-04-24T05:18:18;10.40;99.90
7684;DHT22;3884;48.616;12.872;2023-04-24T05:20:45;10.40;99.90
7684;DHT22;3884;48.616;12.872;2023-04-24T05:23:13;10.40;99.90
7684;DHT22;3884;48.616;12.872;2023-04-24T05:25:45;10.40;99.90
7684;DHT22;3884;48.616;12.872;2023-04-24T05:28:13;10.40;99.90
7684;DHT22;3884;48.616;12.872;2023-04-24T05:30:43;10.40;99.90
7684;DHT22;3884;48.616;12.872;2023-04-24T05:33:11;10.40;99.90
7684;DHT22;3884;48.616;12.872;2023-04-24T05:35:40;10.40;99.90
7684;DHT22;3884;48.616;12.872;2023-04-24T05:38:11;10.40;99.90
7684;DHT22;3884;48.616;12.872;2023-04-24T05:40:41;10.40;99.90
7684;DHT22;3884;48.616;12.872;2023-04-24T05:43:09;10.30;99.90
7684;DHT22;3884;48.616;12.872;2023-04-24T05:45:36;10.30;99.90
7684;DHT22;3884;48.616;12.872;2023-04-24T05:48:03;10.40;99.90
7684;DHT22;3884;48.616;12.872;2023-04-24T05:50:30;10.30;99.90
7684;DHT22;3884;48.616;12.872;2023-04-24T05:52:57;10.30;99.90
7684;DHT22;3884;48.616;12.872;2023-04-24T05:55:31;10.30;99.90
7684;DHT22;3884;48.616;12.872;2023-04-24T05:57:58;10.30;99.90
7684;DHT22;3884;48.616;12.872;2023-04-24T06:00:30;10.20;99.90
7684;DHT22;3884;48.616;12.872;2023-04-24T06:03:08;10.20;99.90
7684;DHT22;3884;48.616;12.872;2023-04-24T06:05:36;10.20;99.90
7684;DHT22;3884;48.616;12.872;2023-04-24T06:08:05;10.20;99.90
7684;DHT22;3884;48.616;12.872;2023-04-24T06:10:38;10.20;99.90
7684;DHT22;3884;48.616;12.872;2023-04-24T06:13:07;10.20;99.90
7684;DHT22;3884;48.616;12.872;2023-04-24T06:15:37;10.20;99.90
7684;DHT22;3884;48.616;12.872;2023-04-24T06:18:09;10.20;99.90
7684;DHT22;3884;48.616;12.872;2023-04-24T06:20:38;10.30;99.90
7684;DHT22;3884;48.616;12.872;2023-04-24T06:23:08;10.20;99.90
7684;DHT22;3884;48.616;12.872;2023-04-24T06:25:36;10.20;99.90
7684;DHT22;3884;48.616;12.872;2023-04-24T06:28:04;10.30;99.90
7684;DHT22;3884;48.616;12.872;2023-04-24T06:30:38;10.30;99.90
7684;DHT22;3884;48.616;12.872;2023-04-24T06:33:09;10.30;99.90
7684;DHT22;3884;48.616;12.872;2023-04-24T06:35:42;10.40;99.90
7684;DHT22;3884;48.616;12.872;2023-04-24T06:38:09;10.50;99.90
7684;DHT22;3884;48.616;12.872;2023-04-24T06:40:37;10.50;99.90
7684;DHT22;3884;48.616;12.872;2023-04-24T06:43:04;10.40;99.90
7684;DHT22;3884;48.616;12.872;2023-04-24T06:45:31;10.50;99.90
7684;DHT22;3884;48.616;12.872;2023-04-24T06:48:00;10.60;99.90
7684;DHT22;3884;48.616;12.872;2023-04-24T06:50:29;10.60;99.90
7684;DHT22;3884;48.616;12.872;2023-04-24T06:52:56;10.60;99.90
7684;DHT22;3884;48.616;12.872;2023-04-24T06:55:23;10.70;99.90
7684;DHT22;3884;48.616;12.872;2023-04-24T06:57:50;10.70;99.90
7684;DHT22;3884;48.616;12.872;2023-04-24T07:00:17;10.70;99.90
7684;DHT22;3884;48.616;12.872;2023-04-24T07:02:44;10.70;99.90
7684;DHT22;3884;48.616;12.872;2023-04-24T07:05:13;10.70;99.90
7684;DHT22;3884;48.616;12.872;2023-04-24T07:07:40;10.70;99.90
7684;DHT22;3884;48.616;12.872;2023-04-24T07:10:08;10.80;99.90
7684;DHT22;3884;48.616;12.872;2023-04-24T07:12:35;10.70;99.90
7684;DHT22;3884;48.616;12.872;2023-04-24T07:15:03;10.70;99.90
7684;DHT22;3884;48.616;12.872;2023-04-24T07:17:30;10.70;99.90
7684;DHT22;3884;48.616;12.872;2023-04-24T07:19:57;10.60;99.90
7684;DHT22;3884;48.616;12.872;2023-04-24T07:22:26;10.70;99.90
7684;DHT22;3884;48.616;12.872;2023-04-24T07:24:53;10.80;99.90
7684;DHT22;3884;48.616;12.872;2023-04-24T07:27:20;10.70;99.90
7684;DHT22;3884;48.616;12.872;2023-04-24T07:29:48;10.70;99.90
7684;DHT22;3884;48.616;12.872;2023-04-24T07:32:15;10.60;99.90
7684;DHT22;3884;48.616;12.872;2023-04-24T07:34:42;10.70;99.90
7684;DHT22;3884;48.616;12.872;2023-04-24T07:37:09;10.60;99.90
7684;DHT22;3884;48.616;12.872;2023-04-24T07:39:38;10.80;99.90
7684;DHT22;3884;48.616;12.872;2023-04-24T07:42:09;10.60;99.90
7684;DHT22;3884;48.616;12.872;2023-04-24T07:44:44;10.70;99.90
7684;DHT22;3884;48.616;12.872;2023-04-24T07:47:13;10.70;99.90
7684;DHT22;3884;48.616;12.872;2023-04-24T07:49:49;10.70;99.90
7684;DHT22;3884;48.616;12.872;2023-04-24T07:52:16;10.70;99.90
7684;DHT22;3884;48.616;12.872;2023-04-24T07:54:45;10.80;99.90
7684;DHT22;3884;48.616;12.872;2023-04-24T07:57:16;10.70;99.90
7684;DHT22;3884;48.616;12.872;2023-04-24T07:59:45;10.80;99.90
7684;DHT22;3884;48.616;12.872;2023-04-24T08:02:13;10.80;99.90
7684;DHT22;3884;48.616;12.872;2023-04-24T08:04:40;10.90;99.90
7684;DHT22;3884;48.616;12.872;2023-04-24T08:07:08;10.90;99.90
7684;DHT22;3884;48.616;12.872;2023-04-24T08:09:36;10.90;99.90
7684;DHT22;3884;48.616;12.872;2023-04-24T08:12:06;11.00;99.90
7684;DHT22;3884;48.616;12.872;2023-04-24T08:14:34;10.90;99.90
7684;DHT22;3884;48.616;12.872;2023-04-24T08:17:04;11.10;99.90
7684;DHT22;3884;48.616;12.872;2023-04-24T08:19:31;11.00;99.90
7684;DHT22;3884;48.616;12.872;2023-04-24T08:21:58;11.20;99.90
7684;DHT22;3884;48.616;12.872;2023-04-24T08:24:26;11.30;99.90
7684;DHT22;3884;48.616;12.872;2023-04-24T08:26:55;11.20;90.10
7684;DHT22;3884;48.616;12.872;2023-04-24T08:29:32;11.30;99.90
7684;DHT22;3884;48.616;12.872;2023-04-24T08:32:20;11.30;85.70
7684;DHT22;3884;48.616;12.872;2023-04-24T08:34:47;11.40;79.40
7684;DHT22;3884;48.616;12.872;2023-04-24T08:37:14;11.50;96.70
7684;DHT22;3884;48.616;12.872;2023-04-24T08:39:41;11.60;33.30
7684;DHT22;3884;48.616;12.872;2023-04-24T08:42:11;11.60;1.00
7684;DHT22;3884;48.616;12.872;2023-04-24T08:44:42;11.70;15.30
7684;DHT22;3884;48.616;12.872;2023-04-24T08:47:10;11.80;79.80
7684;DHT22;3884;48.616;12.872;2023-04-24T08:49:40;11.90;1.00
7684;DHT22;3884;48.616;12.872;2023-04-24T08:52:07;12.00;1.00
7684;DHT22;3884;48.616;12.872;2023-04-24T08:54:42;12.10;1.00
7684;DHT22;3884;48.616;12.872;2023-04-24T08:57:11;12.20;1.00
7684;DHT22;3884;48.616;12.872;2023-04-24T08:59:41;12.30;1.00
7684;DHT22;3884;48.616;12.872;2023-04-24T09:02:10;12.20;1.00
7684;DHT22;3884;48.616;12.872;2023-04-24T09:04:38;12.20;1.00
7684;DHT22;3884;48.616;12.872;2023-04-24T09:07:06;12.40;1.00
7684;DHT22;3884;48.616;12.872;2023-04-24T09:09:38;12.20;1.00
7684;DHT22;3884;48.616;12.872;2023-04-24T09:12:05;12.10;1.00
7684;DHT22;3884;48.616;12.872;2023-04-24T09:14:35;12.30;99.90
7684;DHT22;3884;48.616;12.872;2023-04-24T09:17:06;12.30;99.90
7684;DHT22;3884;48.616;12.872;2023-04-24T09:19:36;12.20;1.00
7684;DHT22;3884;48.616;12.872;2023-04-24T09:22:12;12.40;1.00
7684;DHT22;3884;48.616;12.872;2023-04-24T09:25:24;12.50;1.00
7684;DHT22;3884;48.616;12.872;2023-04-24T09:27:58;12.20;1.00
7684;DHT22;3884;48.616;12.872;2023-04-24T09:30:27;12.20;1.00
7684;DHT22;3884;48.616;12.872;2023-04-24T09:33:20;12.10;1.00
7684;DHT22;3884;48.616;12.872;2023-04-24T09:35:49;11.90;1.00
7684;DHT22;3884;48.616;12.872;2023-04-24T09:38:17;11.80;1.00
7684;DHT22;3884;48.616;12.872;2023-04-24T09:40:44;11.80;1.00
7684;DHT22;3884;48.616;12.872;2023-04-24T09:43:11;11.80;1.00
7684;DHT22;3884;48.616;12.872;2023-04-24T09:45:39;11.90;58.70
7684;DHT22;3884;48.616;12.872;2023-04-24T09:48:09;11.90;1.00
7684;DHT22;3884;48.616;12.872;2023-04-24T09:50:37;11.80;1.00
7684;DHT22;3884;48.616;12.872;2023-04-24T09:53:05;12.00;1.00
7684;DHT22;3884;48.616;12.872;2023-04-24T09:55:39;12.00;1.00
7684;DHT22;3884;48.616;12.872;2023-04-24T09:58:08;12.00;1.00
7684;DHT22;3884;48.616;12.872;2023-04-24T10:00:35;12.00;1.00
7684;DHT22;3884;48.616;12.872;2023-04-24T10:03:07;12.00;1.00
7684;DHT22;3884;48.616;12.872;2023-04-24T10:05:37;12.00;1.00
7684;DHT22;3884;48.616;12.872;2023-04-24T10:08:07;11.70;1.00
7684;DHT22;3884;48.616;12.872;2023-04-24T10:10:38;11.10;90.90
7684;DHT22;3884;48.616;12.872;2023-04-24T10:13:07;10.80;99.90
7684;DHT22;3884;48.616;12.872;2023-04-24T10:15:35;10.70;1.00
7684;DHT22;3884;48.616;12.872;2023-04-24T10:18:04;10.20;1.00
7684;DHT22;3884;48.616;12.872;2023-04-24T10:20:33;10.10;99.90
7684;DHT22;3884;48.616;12.872;2023-04-24T10:23:15;10.00;18.20
7684;DHT22;3884;48.616;12.872;2023-04-24T10:25:45;10.20;1.00
7684;DHT22;3884;48.616;12.872;2023-04-24T10:28:21;9.90;1.00
7684;DHT22;3884;48.616;12.872;2023-04-24T10:30:49;9.90;1.00
7684;DHT22;3884;48.616;12.872;2023-04-24T10:33:23;9.90;1.00
7684;DHT22;3884;48.616;12.872;2023-04-24T10:35:51;10.10;99.90
7684;DHT22;3884;48.616;12.872;2023-04-24T10:38:22;10.20;36.30
7684;DHT22;3884;48.616;12.872;2023-04-24T10:40:51;10.30;1.00
7684;DHT22;3884;48.616;12.872;2023-04-24T10:43:18;10.40;1.00
7684;DHT22;3884;48.616;12.872;2023-04-24T10:46:20;10.40;99.90
7684;DHT22;3884;48.616;12.872;2023-04-24T10:48:53;10.70;1.00
7684;DHT22;3884;48.616;12.872;2023-04-24T10:51:22;10.70;1.00
7684;DHT22;3884;48.616;12.872;2023-04-24T10:53:51;10.90;1.00
7684;DHT22;3884;48.616;12.872;2023-04-24T10:56:18;11.10;99.90
7684;DHT22;3884;48.616;12.872;2023-04-24T10:58:50;11.10;1.00
7684;DHT22;3884;48.616;12.872;2023-04-24T11:01:23;11.30;99.90
7684;DHT22;3884;48.616;12.872;2023-04-24T11:03:54;11.50;99.90
7684;DHT22;3884;48.616;12.872;2023-04-24T11:06:29;11.60;99.90
7684;DHT22;3884;48.616;12.872;2023-04-24T11:09:03;11.70;1.00
7684;DHT22;3884;48.616;12.872;2023-04-24T11:11:31;11.70;99.90
7684;DHT22;3884;48.616;12.872;2023-04-24T11:14:06;11.70;80.30
7684;DHT22;3884;48.616;12.872;2023-04-24T11:16:35;11.70;99.90
7684;DHT22;3884;48.616;12.872;2023-04-24T11:19:09;12.00;99.90
7684;DHT22;3884;48.616;12.872;2023-04-24T11:25:13;12.40;1.00
7684;DHT22;3884;48.616;12.872;2023-04-24T11:28:04;12.50;99.90
7684;DHT22;3884;48.616;12.872;2023-04-24T11:30:40;12.60;1.00
7684;DHT22;3884;48.616;12.872;2023-04-24T11:33:25;12.30;1.00
7684;DHT22;3884;48.616;12.872;2023-04-24T11:36:02;12.50;1.00
7684;DHT22;3884;48.616;12.872;2023-04-24T11:38:29;12.70;99.90
7684;DHT22;3884;48.616;12.872;2023-04-24T11:40:56;12.80;1.00
7684;DHT22;3884;48.616;12.872;2023-04-24T11:43:26;12.90;1.00
7684;DHT22;3884;48.616;12.872;2023-04-24T11:46:16;12.90;1.00
7684;DHT22;3884;48.616;12.872;2023-04-24T11:49:23;12.80;1.00
7684;DHT22;3884;48.616;12.872;2023-04-24T11:51:50;12.70;1.00
7684;DHT22;3884;48.616;12.872;2023-04-24T11:54:21;12.70;1.00
7684;DHT22;3884;48.616;12.872;2023-04-24T11:56:49;13.00;99.90
7684;DHT22;3884;48.616;12.872;2023-04-24T11:59:18;13.20;99.90
7684;DHT22;3884;48.616;12.872;2023-04-24T12:01:45;13.30;99.90
7684;DHT22;3884;48.616;12.872;2023-04-24T12:07:24;13.50;99.90
7684;DHT22;3884;48.616;12.872;2023-04-24T12:10:23;13.40;99.90
7684;DHT22;3884;48.616;12.872;2023-04-24T12:12:50;13.40;99.90
7684;DHT22;3884;48.616;12.872;2023-04-24T12:15:20;13.50;99.90
7684;DHT22;3884;48.616;12.872;2023-04-24T12:17:47;13.30;99.90
7684;DHT22;3884;48.616;12.872;2023-04-24T12:20:14;13.40;99.90
7684;DHT22;3884;48.616;12.872;2023-04-24T12:22:46;13.60;99.90
7684;DHT22;3884;48.616;12.872;2023-04-24T12:25:14;13.70;99.90
7684;DHT22;3884;48.616;12.872;2023-04-24T12:27:41;13.50;99.90
7684;DHT22;3884;48.616;12.872;2023-04-24T12:30:12;13.30;99.90
7684;DHT22;3884;48.616;12.872;2023-04-24T12:32:45;13.20;99.90
7684;DHT22;3884;48.616;12.872;2023-04-24T12:35:12;13.00;99.90
7684;DHT22;3884;48.616;12.872;2023-04-24T12:37:42;13.00;99.90
7684;DHT22;3884;48.616;12.872;2023-04-24T12:40:11;12.70;99.90
7684;DHT22;3884;48.616;12.872;2023-04-24T12:42:43;11.80;99.90
7684;DHT22;3884;48.616;12.872;2023-04-24T12:45:10;11.20;1.00
7684;DHT22;3884;48.616;12.872;2023-04-24T12:47:42;11.10;1.00
7684;DHT22;3884;48.616;12.872;2023-04-24T12:50:12;11.40;1.00
7684;DHT22;3884;48.616;12.872;2023-04-24T12:52:41;10.80;99.90
7684;DHT22;3884;48.616;12.872;2023-04-24T12:55:10;10.80;5.70
7684;DHT22;3884;48.616;12.872;2023-04-24T12:57:39;10.80;1.00
7684;DHT22;3884;48.616;12.872;2023-04-24T13:00:08;10.80;1.00
7684;DHT22;3884;48.616;12.872;2023-04-24T13:02:36;11.00;1.00
7684;DHT22;3884;48.616;12.872;2023-04-24T13:05:04;11.20;1.00
7684;DHT22;3884;48.616;12.872;2023-04-24T13:07:34;11.30;1.00
7684;DHT22;3884;48.616;12.872;2023-04-24T13:10:01;11.50;99.90
7684;DHT22;3884;48.616;12.872;2023-04-24T13:12:29;11.50;99.90
7684;DHT22;3884;48.616;12.872;2023-04-24T13:15:00;11.70;99.90
7684;DHT22;3884;48.616;12.872;2023-04-24T13:17:40;11.70;99.90
7684;DHT22;3884;48.616;12.872;2023-04-24T13:20:08;11.70;99.90
7684;DHT22;3884;48.616;12.872;2023-04-24T13:22:42;11.90;99.90
7684;DHT22;3884;48.616;12.872;2023-04-24T13:25:10;12.00;57.50
7684;DHT22;3884;48.616;12.872;2023-04-24T13:27:38;12.00;99.90
7684;DHT22;3884;48.616;12.872;2023-04-24T13:30:07;12.10;73.80
7684;DHT22;3884;48.616;12.872;2023-04-24T13:32:34;12.10;1.00
7684;DHT22;3884;48.616;12.872;2023-04-24T13:35:02;12.00;1.00
7684;DHT22;3884;48.616;12.872;2023-04-24T13:37:29;11.90;1.00
7684;DHT22;3884;48.616;12.872;2023-04-24T13:39:58;12.00;1.00
7684;DHT22;3884;48.616;12.872;2023-04-24T13:42:26;12.40;1.00
7684;DHT22;3884;48.616;12.872;2023-04-24T13:44:53;12.60;1.00
7684;DHT22;3884;48.616;12.872;2023-04-24T13:47:21;12.80;1.00
7684;DHT22;3884;48.616;12.872;2023-04-24T13:49:48;13.00;1.00
7684;DHT22;3884;48.616;12.872;2023-04-24T13:52:15;12.90;1.00
7684;DHT22;3884;48.616;12.872;2023-04-24T13:54:43;12.80;1.00
7684;DHT22;3884;48.616;12.872;2023-04-24T13:57:14;12.70;1.00
7684;DHT22;3884;48.616;12.872;2023-04-24T13:59:42;12.70;1.00
7684;DHT22;3884;48.616;12.872;2023-04-24T14:02:10;12.70;1.00
7684;DHT22;3884;48.616;12.872;2023-04-24T14:04:38;12.60;1.00
7684;DHT22;3884;48.616;12.872;2023-04-24T14:07:05;12.50;1.00
7684;DHT22;3884;48.616;12.872;2023-04-24T14:09:33;12.50;1.00
7684;DHT22;3884;48.616;12.872;2023-04-24T14:12:01;12.60;1.00
7684;DHT22;3884;48.616;12.872;2023-04-24T14:14:31;12.80;1.00
7684;DHT22;3884;48.616;12.872;2023-04-24T14:16:58;12.80;1.00
7684;DHT22;3884;48.616;12.872;2023-04-24T14:19:25;12.80;1.00
7684;DHT22;3884;48.616;12.872;2023-04-24T14:21:53;12.80;1.00
7684;DHT22;3884;48.616;12.872;2023-04-24T14:24:21;12.90;1.00
7684;DHT22;3884;48.616;12.872;2023-04-24T14:26:48;12.80;1.00
7684;DHT22;3884;48.616;12.872;2023-04-24T14:29:16;12.80;1.00
7684;DHT22;3884;48.616;12.872;2023-04-24T14:31:44;12.90;1.00
7684;DHT22;3884;48.616;12.872;2023-04-24T14:34:14;12.80;1.00
7684;DHT22;3884;48.616;12.872;2023-04-24T14:36:42;12.80;1.00
7684;DHT22;3884;48.616;12.872;2023-04-24T14:39:09;12.70;1.00
7684;DHT22;3884;48.616;12.872;2023-04-24T14:41:38;12.70;99.90
7684;DHT22;3884;48.616;12.872;2023-04-24T14:44:06;12.70;99.90
7684;DHT22;3884;48.616;12.872;2023-04-24T14:46:33;12.60;99.90
7684;DHT22;3884;48.616;12.872;2023-04-24T14:49:02;12.80;1.00
7684;DHT22;3884;48.616;12.872;2023-04-24T14:51:29;12.90;1.00
7684;DHT22;3884;48.616;12.872;2023-04-24T14:53:57;13.00;86.90
7684;DHT22;3884;48.616;12.872;2023-04-24T14:56:25;13.20;1.00
7684;DHT22;3884;48.616;12.872;2023-04-24T14:58:52;13.30;1.00
7684;DHT22;3884;48.616;12.872;2023-04-24T15:01:19;13.30;1.00
7684;DHT22;3884;48.616;12.872;2023-04-24T15:03:47;13.50;1.00
7684;DHT22;3884;48.616;12.872;2023-04-24T15:06:16;13.70;1.00
7684;DHT22;3884;48.616;12.872;2023-04-24T15:08:43;13.80;86.50
7684;DHT22;3884;48.616;12.872;2023-04-24T15:11:11;13.60;1.00
7684;DHT22;3884;48.616;12.872;2023-04-24T15:13:38;13.50;1.00
7684;DHT22;3884;48.616;12.872;2023-04-24T15:16:06;13.40;1.00
7684;DHT22;3884;48.616;12.872;2023-04-24T15:18:33;13.50;1.00
7684;DHT22;3884;48.616;12.872;2023-04-24T15:21:00;13.30;1.00
7684;DHT22;3884;48.616;12.872;2023-04-24T15:23:29;13.10;1.00
7684;DHT22;3884;48.616;12.872;2023-04-24T15:25:57;13.10;1.00
7684;DHT22;3884;48.616;12.872;2023-04-24T15:28:25;13.20;1.00
7684;DHT22;3884;48.616;12.872;2023-04-24T15:30:52;13.10;1.00
7684;DHT22;3884;48.616;12.872;2023-04-24T15:33:19;13.00;1.00
7684;DHT22;3884;48.616;12.872;2023-04-24T15:35:47;12.90;1.00
7684;DHT22;3884;48.616;12.872;2023-04-24T15:38:14;12.80;1.00
7684;DHT22;3884;48.616;12.872;2023-04-24T15:40:43;12.80;1.00
7684;DHT22;3884;48.616;12.872;2023-04-24T15:43:10;12.70;1.00
7684;DHT22;3884;48.616;12.872;2023-04-24T15:45:38;12.60;1.00
7684;DHT22;3884;48.616;12.872;2023-04-24T15:48:05;12.60;1.00
7684;DHT22;3884;48.616;12.872;2023-04-24T15:50:33;12.70;1.00
7684;DHT22;3884;48.616;12.872;2023-04-24T15:53:00;12.70;1.00
7684;DHT22;3884;48.616;12.872;2023-04-24T15:55:27;12.60;1.00
7684;DHT22;3884;48.616;12.872;2023-04-24T15:57:56;12.80;1.00
7684;DHT22;3884;48.616;12.872;2023-04-24T16:00:24;12.80;1.00
7684;DHT22;3884;48.616;12.872;2023-04-24T16:02:51;12.90;1.00
7684;DHT22;3884;48.616;12.872;2023-04-24T16:05:48;12.80;1.00
7684;DHT22;3884;48.616;12.872;2023-04-24T16:08:16;12.90;1.00
7684;DHT22;3884;48.616;12.872;2023-04-24T16:10:44;12.70;1.00
7684;DHT22;3884;48.616;12.872;2023-04-24T16:13:22;12.80;1.00
7684;DHT22;3884;48.616;12.872;2023-04-24T16:16:18;12.80;1.00